Philadelphia, Pennsylvania
Traffic Map
Current Weather Conditions
Philadelphia, Pennsylvania
Broken Clouds
Broken Clouds
65°
Feels Like: 65°
Wind Chill: 65° Ceiling: 2200
Heat Index: 65° Visibility: 10mi
Dew Point: 61° Wind: 10mph
Humidity: 87% Direction: 200° (SSW)
Pressure: 29.69in Gusts: 0mph
Raw Report DataKPHL 241354Z 20009KT 10SM SCT013 BKN022 BKN029 18/16 A2969 RMK AO2 SLP053 T01830161
Traffic Incident Summary
Active as of:
Severity:
Category:
InformationThere was an issue retrieving the traffic information for this location. Please try a different location or try again shortly.
Advertisements
Track Severe Weather on mobile